Time;durP1;ratioP1;P1;durP2;ratioP2;P2;SDS_P1;SDS_P2;PMS_P1;PMS_P2;Temp;Humidity;BMP_temperature;BMP_pressure;BME280_temperature;BME280_humidity;BME280_pressure;Samples;Min_cycle;Max_cycle;Signal;HPM_P1;HPM_P2
2022/04/26 03:37:44;;;;;;;15.13;5.10;;;6.10;99.90;;;;;;5072431;28;20139;-61
2022/04/26 03:40:15;;;;;;;15.20;6.03;;;6.30;99.90;;;;;;5070562;28;20044;-61
2022/04/26 03:42:41;;;;;;;12.50;5.28;;;6.00;99.90;;;;;;5072257;28;20036;-61
2022/04/26 03:45:07;;;;;;;9.95;4.97;;;6.30;99.90;;;;;;5071579;28;20033;-61
2022/04/26 03:47:32;;;;;;;13.85;6.32;;;6.10;99.90;;;;;;5070976;28;20392;-61
2022/04/26 03:49:58;;;;;;;14.27;4.80;;;6.50;99.90;;;;;;5073046;28;20041;-61
2022/04/26 03:52:23;;;;;;;11.10;5.63;;;5.90;99.90;;;;;;5091766;28;20118;-61
2022/04/26 03:54:49;;;;;;;9.27;4.55;;;6.30;99.90;;;;;;5091558;28;20043;-61
2022/04/26 03:57:15;;;;;;;11.88;4.93;;;6.20;99.90;;;;;;5092354;28;20043;-61
2022/04/26 03:59:40;;;;;;;9.90;5.07;;;6.40;99.90;;;;;;5092071;28;20047;-62
2022/04/26 04:02:06;;;;;;;11.60;5.32;;;6.20;99.90;;;;;;5089403;28;20110;-61
2022/04/26 04:04:31;;;;;;;9.95;4.60;;;6.20;99.90;;;;;;5090804;28;20040;-61
2022/04/26 04:06:57;;;;;;;12.68;5.40;;;6.10;99.90;;;;;;5091308;28;20385;-61
2022/04/26 04:09:28;;;;;;;9.80;5.03;;;6.60;99.90;;;;;;5090000;28;20036;-61
2022/04/26 04:11:54;;;;;;;14.73;5.53;;;6.20;99.90;;;;;;5091674;28;20036;-61
2022/04/26 04:14:19;;;;;;;11.95;4.82;;;6.20;99.90;;;;;;5091236;28;20047;-61
2022/04/26 04:16:45;;;;;;;14.68;5.15;;;6.50;99.90;;;;;;5089922;28;20050;-61
2022/04/26 04:19:20;;;;;;;12.10;5.53;;;6.10;99.90;;;;;;5074642;28;20048;-61
2022/04/26 04:21:47;;;;;;;10.52;5.30;;;6.20;99.90;;;;;;5090176;28;20492;-61
2022/04/26 04:24:17;;;;;;;9.23;5.60;;;6.00;99.90;;;;;;5092089;28;20039;-61
2022/04/26 04:26:43;;;;;;;8.57;4.90;;;6.40;99.90;;;;;;5091606;28;20043;-61
2022/04/26 04:29:08;;;;;;;13.35;4.95;;;6.20;99.90;;;;;;5091262;28;20036;-61
2022/04/26 04:31:35;;;;;;;10.07;4.50;;;5.90;99.90;;;;;;5089266;28;20423;-61
2022/04/26 04:34:01;;;;;;;11.75;6.07;;;6.40;99.90;;;;;;5092417;28;20086;-61
2022/04/26 04:36:27;;;;;;;15.32;5.10;;;6.10;99.90;;;;;;5091259;28;20032;-61
2022/04/26 04:38:53;;;;;;;16.02;5.75;;;5.80;99.90;;;;;;5091418;28;20396;-61
2022/04/26 04:41:19;;;;;;;11.80;5.40;;;5.90;99.90;;;;;;5092017;28;20036;-61
2022/04/26 04:43:45;;;;;;;12.98;5.82;;;5.90;99.90;;;;;;5106840;28;20386;-61
2022/04/26 04:46:11;;;;;;;13.82;5.07;;;6.00;99.90;;;;;;5090746;28;20051;-61
2022/04/26 04:48:36;;;;;;;10.43;5.82;;;6.30;99.90;;;;;;5091907;28;20076;-61
2022/04/26 04:51:02;;;;;;;9.20;5.10;;;6.00;99.90;;;;;;5091412;28;20032;-61
2022/04/26 04:53:28;;;;;;;12.90;5.28;;;5.70;99.90;;;;;;5091349;28;20481;-61
2022/04/26 04:55:54;;;;;;;15.88;5.13;;;;;;;;;;5091671;28;20080;-61
2022/04/26 04:58:19;;;;;;;12.52;5.40;;;6.30;99.90;;;;;;5090328;28;20445;-61
2022/04/26 05:00:45;;;;;;;10.82;5.63;;;6.10;99.90;;;;;;5091563;28;20036;-61
2022/04/26 05:03:11;;;;;;;11.93;5.22;;;5.90;99.90;;;;;;5090797;28;20087;-61
2022/04/26 05:05:37;;;;;;;12.77;4.68;;;;;;;;;;5089137;28;20488;-61
2022/04/26 05:08:03;;;;;;;12.30;5.18;;;6.40;99.90;;;;;;5092051;28;20036;-61
2022/04/26 05:10:33;;;;;;;13.95;6.22;;;6.60;99.90;;;;;;5090761;28;20094;-61
2022/04/26 05:12:59;;;;;;;11.63;5.28;;;6.30;99.90;;;;;;5092315;28;20040;-61
2022/04/26 05:15:25;;;;;;;14.27;5.50;;;6.80;99.90;;;;;;5095429;28;20046;-61
2022/04/26 05:17:51;;;;;;;9.55;5.30;;;6.50;99.90;;;;;;5093398;28;20043;-61
2022/04/26 05:20:17;;;;;;;9.80;5.05;;;7.20;99.90;;;;;;5095538;28;20109;-61
2022/04/26 05:25:27;;;;;;;12.68;5.07;;;6.60;99.90;;;;;;5092572;28;20044;-62
2022/04/26 05:27:53;;;;;;;11.82;5.72;;;7.10;99.90;;;;;;5094692;28;20105;-62
2022/04/26 05:30:18;;;;;;;10.48;5.18;;;7.40;99.90;;;;;;5093873;28;20105;-61
2022/04/26 05:32:44;;;;;;;11.10;5.22;;;7.00;99.90;;;;;;5092979;28;20056;-62
2022/04/26 05:35:11;;;;;;;12.88;5.45;;;6.90;99.90;;;;;;5091447;28;20076;-61
2022/04/26 05:37:36;;;;;;;13.20;5.20;;;7.30;99.90;;;;;;5093234;28;20504;-61
2022/04/26 05:40:02;;;;;;;9.02;5.38;;;7.80;99.90;;;;;;5092350;28;20201;-61
2022/04/26 05:42:30;;;;;;;11.77;5.07;;;7.30;99.90;;;;;;5093648;28;20058;-62
2022/04/26 05:44:56;;;;;;;15.45;6.10;;;7.60;99.90;;;;;;5090094;28;20532;-62
2022/04/26 05:47:21;;;;;;;9.05;5.03;;;7.30;99.90;;;;;;5090366;28;20044;-61
2022/04/26 05:49:47;;;;;;;15.07;6.43;;;7.80;99.90;;;;;;5090756;28;20458;-61
2022/04/26 05:52:13;;;;;;;11.70;5.93;;;7.80;99.90;;;;;;5091149;28;20032;-61
2022/04/26 05:54:38;;;;;;;12.98;5.57;;;7.50;99.90;;;;;;5090535;28;20479;-62
2022/04/26 05:57:04;;;;;;;10.00;5.20;;;7.80;99.90;;;;;;5091169;28;20039;-61
2022/04/26 05:59:30;;;;;;;10.25;5.93;;;8.00;99.90;;;;;;5092277;28;20040;-61
2022/04/26 06:01:55;;;;;;;11.38;5.32;;;8.00;99.90;;;;;;5092083;28;20752;-62
2022/04/26 06:04:21;;;;;;;11.57;5.50;;;8.00;99.90;;;;;;5091771;28;20119;-62
2022/04/26 06:06:47;;;;;;;14.35;5.95;;;8.10;99.90;;;;;;5091089;28;20048;-62
2022/04/26 06:09:16;;;;;;;14.20;6.40;;;8.30;99.90;;;;;;5090687;28;20099;-62
2022/04/26 06:11:42;;;;;;;16.92;6.13;;;8.50;99.90;;;;;;5091242;28;20484;-62
2022/04/26 06:14:07;;;;;;;9.98;5.45;;;8.80;99.90;;;;;;5091141;28;20043;-62
2022/04/26 06:16:33;;;;;;;12.68;5.15;;;9.20;99.90;;;;;;5090531;28;20535;-61
2022/04/26 06:18:59;;;;;;;12.75;5.65;;;9.00;99.90;;;;;;5090965;28;20131;-61
2022/04/26 06:21:24;;;;;;;11.73;4.57;;;9.10;99.90;;;;;;5089048;28;20044;-61
2022/04/26 06:23:50;;;;;;;14.45;4.35;;;9.10;99.90;;;;;;5088156;28;20047;-61
2022/04/26 06:26:16;;;;;;;12.93;4.72;;;9.20;99.90;;;;;;5091405;28;20044;-62
2022/04/26 06:28:43;;;;;;;10.00;4.53;;;9.10;99.90;;;;;;5072398;28;20098;-61
2022/04/26 06:31:08;;;;;;;8.93;4.55;;;9.10;99.90;;;;;;5089494;28;20105;-62
2022/04/26 06:33:34;;;;;;;9.70;4.22;;;8.70;99.90;;;;;;5090193;28;20040;-62
2022/04/26 06:36:00;;;;;;;10.20;3.63;;;8.70;99.90;;;;;;5090237;28;20036;-61
2022/04/26 06:38:26;;;;;;;8.88;4.40;;;8.80;99.90;;;;;;5089359;28;20052;-62
2022/04/26 06:40:53;;;;;;;9.85;3.30;;;8.90;99.90;;;;;;5089640;28;20120;-61
2022/04/26 06:43:19;;;;;;;8.98;3.22;;;9.00;99.90;;;;;;5089364;28;20577;-61
2022/04/26 06:45:46;;;;;;;7.03;3.30;;;8.90;99.90;;;;;;5090818;28;20438;-61
2022/04/26 06:48:12;;;;;;;9.50;4.03;;;9.00;99.90;;;;;;5087203;28;20515;-61
2022/04/26 06:50:38;;;;;;;8.15;3.92;;;9.10;99.90;;;;;;5086106;28;20032;-62
2022/04/26 06:53:05;;;;;;;11.57;3.90;;;9.20;99.90;;;;;;5090546;28;20036;-62
2022/04/26 06:55:31;;;;;;;8.27;3.63;;;9.10;99.90;;;;;;5089490;28;20097;-61
2022/04/26 06:57:57;;;;;;;6.35;3.60;;;9.00;99.90;;;;;;5088144;28;20423;-61
2022/04/26 07:00:23;;;;;;;10.48;4.50;;;8.80;99.90;;;;;;5090176;28;20039;-61
2022/04/26 07:02:48;;;;;;;11.27;4.30;;;9.20;99.90;;;;;;5088987;28;20392;-61
2022/04/26 07:05:15;;;;;;;9.10;4.07;;;9.30;99.90;;;;;;5088074;28;20079;-61
2022/04/26 07:07:40;;;;;;;9.00;3.50;;;9.40;99.90;;;;;;5087074;28;20565;-61
2022/04/26 07:10:07;;;;;;;9.05;3.42;;;9.60;99.90;;;;;;5089548;28;20048;-61
2022/04/26 07:12:33;;;;;;;6.65;3.03;;;9.80;99.90;;;;;;5071084;28;20520;-62
2022/04/26 07:14:59;;;;;;;10.85;3.03;;;9.90;99.90;;;;;;5090148;28;20084;-62
2022/04/26 07:17:25;;;;;;;5.82;2.60;;;10.00;99.90;;;;;;5087830;28;20083;-61
2022/04/26 07:19:50;;;;;;;8.48;3.10;;;9.90;99.90;;;;;;5088689;28;20051;-62
2022/04/26 07:22:16;;;;;;;7.95;3.25;;;10.00;99.90;;;;;;5088763;28;20074;-62
2022/04/26 07:24:42;;;;;;;7.63;3.20;;;10.40;99.90;;;;;;5104809;28;20059;-61
2022/04/26 07:27:07;;;;;;;6.82;3.28;;;9.90;99.90;;;;;;5089374;28;20054;-61
2022/04/26 07:29:34;;;;;;;10.63;3.08;;;10.60;99.90;;;;;;5089734;28;20055;-61
2022/04/26 07:32:00;;;;;;;13.05;3.63;;;10.50;99.90;;;;;;5088897;28;20119;-61
2022/04/26 07:34:26;;;;;;;7.40;3.30;;;;;;;;;;5088668;28;20444;-61
2022/04/26 07:36:53;;;;;;;10.18;3.25;;;10.30;99.90;;;;;;5088218;28;20039;-61
2022/04/26 07:39:20;;;;;;;7.13;2.75;;;;;;;;;;5086950;28;20493;-61
2022/04/26 07:41:48;;;;;;;7.38;3.55;;;10.90;99.90;;;;;;5088929;28;20054;-61
2022/04/26 07:44:15;;;;;;;7.45;3.13;;;10.60;99.90;;;;;;5087812;28;20044;-62
2022/04/26 07:46:44;;;;;;;7.00;3.17;;;10.00;99.90;;;;;;5088096;28;20044;-61
2022/04/26 07:49:11;;;;;;;8.40;3.03;;;10.30;99.90;;;;;;5089949;28;20044;-61
2022/04/26 07:51:37;;;;;;;7.68;3.67;;;10.40;99.90;;;;;;5087453;28;20075;-61
2022/04/26 07:54:03;;;;;;;6.20;3.10;;;9.60;99.90;;;;;;5087627;28;20099;-61
2022/04/26 07:56:29;;;;;;;6.72;2.58;;;;;;;;;;5088932;28;20051;-62
2022/04/26 07:58:58;;;;;;;11.40;3.58;;;;;;;;;;5089204;28;20289;-62
2022/04/26 08:01:24;;;;;;;6.68;2.85;;;9.60;99.90;;;;;;5087051;28;20051;-62
2022/04/26 08:03:51;;;;;;;7.95;2.78;;;;;;;;;;5087639;28;20055;-62
2022/04/26 08:06:16;;;;;;;7.15;3.13;;;;;;;;;;5072651;28;20077;-61
2022/04/26 08:08:43;;;;;;;13.00;2.50;;;;;;;;;;5086476;28;20052;-61
2022/04/26 08:11:12;;;;;;;8.52;2.60;;;10.30;99.90;;;;;;5088573;28;20138;-61
2022/04/26 08:13:41;;;;;;;9.25;3.22;;;10.60;99.90;;;;;;5088783;28;20126;-62
2022/04/26 08:16:08;;;;;;;6.28;2.83;;;10.90;99.90;;;;;;5087642;28;20040;-61
2022/04/26 08:18:34;;;;;;;7.03;3.00;;;10.70;99.90;;;;;;5089207;28;20404;-62
2022/04/26 08:21:00;;;;;;;6.55;2.70;;;10.90;99.90;;;;;;5088980;28;20040;-61
2022/04/26 08:23:26;;;;;;;5.47;2.80;;;;;;;;;;5088468;28;20466;-62
2022/04/26 08:28:36;;;;;;;5.63;2.67;;;10.10;99.90;;;;;;5103770;28;20402;-61
2022/04/26 08:31:02;;;;;;;7.57;2.80;;;;;;;;;;5088124;28;20043;-61
2022/04/26 08:33:30;;;;;;;8.68;2.92;;;;;;;;;;5087519;28;20056;-61
2022/04/26 08:35:56;;;;;;;11.65;3.22;;;11.20;99.90;;;;;;5088527;28;20401;-61
2022/04/26 08:38:22;;;;;;;8.32;2.72;;;11.20;99.90;;;;;;5074511;28;20044;-61
2022/04/26 08:40:48;;;;;;;6.40;2.78;;;10.60;99.90;;;;;;5092220;28;20043;-61
2022/04/26 08:43:15;;;;;;;7.70;2.42;;;;;;;;;;5091262;28;20028;-61
2022/04/26 08:45:41;;;;;;;5.13;2.58;;;10.90;99.90;;;;;;5092098;28;20185;-61
2022/04/26 08:51:03;;;;;;;;;;;10.70;99.90;;;;;;5094291;28;20047;-61
2022/04/26 08:53:31;;;;;;;7.72;2.40;;;10.90;99.90;;;;;;5095817;28;19920;-61
2022/04/26 08:56:01;;;;;;;6.13;3.03;;;11.40;99.90;;;;;;5094024;28;20047;-61
2022/04/26 09:36:09;;;;;;;7.90;3.03;;;11.10;99.90;;;;;;5068986;28;20500;-61
2022/04/26 09:38:39;;;;;;;5.88;2.42;;;11.30;99.90;;;;;;5091121;28;20185;-61
2022/04/26 09:41:09;;;;;;;4.43;2.10;;;11.20;99.90;;;;;;5095388;28;20063;-61
2022/04/26 09:43:38;;;;;;;5.88;2.42;;;11.60;99.90;;;;;;5091879;28;20043;-62
2022/04/26 09:46:04;;;;;;;6.32;2.85;;;11.60;99.90;;;;;;5092011;28;20036;-61
2022/04/26 09:48:35;;;;;;;5.85;2.70;;;11.70;99.90;;;;;;5093551;28;20065;-61
2022/04/26 09:51:01;;;;;;;9.23;3.20;;;11.80;99.90;;;;;;5093301;28;20135;-61
2022/04/26 09:53:27;;;;;;;7.00;2.70;;;11.70;99.90;;;;;;5075031;28;20103;-61
2022/04/26 09:55:56;;;;;;;7.15;3.03;;;11.30;99.90;;;;;;5092867;28;20076;-61
2022/04/26 09:58:24;;;;;;;6.40;2.38;;;11.50;99.90;;;;;;5092866;28;20040;-62
2022/04/26 10:00:51;;;;;;;4.93;2.40;;;11.00;99.90;;;;;;5093697;28;20132;-62
2022/04/26 10:03:39;;;;;;;6.05;3.08;;;11.20;99.90;;;;;;5088016;28;20083;-61
2022/04/26 10:06:09;;;;;;;4.63;2.33;;;11.60;99.90;;;;;;5093225;28;20052;-61
2022/04/26 10:08:36;;;;;;;8.00;3.17;;;11.90;99.90;;;;;;5093730;28;20408;-62
2022/04/26 10:11:03;;;;;;;8.27;3.17;;;11.80;99.90;;;;;;5078759;28;20047;-61
2022/04/26 10:13:39;;;;;;;5.65;2.40;;;11.80;99.90;;;;;;5089385;28;20043;-61
2022/04/26 10:16:09;;;;;;;6.72;2.58;;;12.20;99.90;;;;;;5091795;28;20058;-61
2022/04/26 10:18:44;;;;;;;6.57;2.90;;;12.00;99.90;;;;;;5090232;28;20048;-61
2022/04/26 10:21:39;;;;;;;6.43;2.97;;;12.00;99.90;;;;;;5089839;28;20040;-61
2022/04/26 10:24:21;;;;;;;7.40;2.60;;;12.00;99.90;;;;;;5077146;28;20040;-61
2022/04/26 10:26:48;;;;;;;6.93;2.95;;;11.90;99.90;;;;;;5083334;28;20456;-61
2022/04/26 10:29:25;;;;;;;7.25;2.38;;;11.90;99.90;;;;;;5091545;28;20530;-62
2022/04/26 10:31:59;;;;;;;8.02;3.00;;;12.30;99.90;;;;;;5092509;28;20123;-61
2022/04/26 10:34:31;;;;;;;4.57;2.33;;;12.40;99.90;;;;;;5074960;28;20695;-62
2022/04/26 10:36:59;;;;;;;5.97;2.50;;;11.90;99.90;;;;;;5093469;28;20056;-62
2022/04/26 10:39:26;;;;;;;7.82;3.00;;;12.60;99.90;;;;;;5092965;28;20401;-62
2022/04/26 10:41:53;;;;;;;10.10;3.17;;;12.60;99.90;;;;;;5092648;28;20036;-62
2022/04/26 10:46:51;;;;;;;5.40;2.60;;;12.50;99.90;;;;;;5093121;28;20055;-62
2022/04/26 10:49:26;;;;;;;7.95;2.95;;;12.70;99.90;;;;;;5092460;28;20058;-62
2022/04/26 10:51:57;;;;;;;12.25;2.95;;;12.70;99.90;;;;;;5109874;28;20044;-62
2022/04/26 10:55:03;;;;;;;8.90;2.72;;;12.40;99.90;;;;;;5092332;28;20044;-62
2022/04/26 10:57:43;;;;;;;5.95;3.13;;;12.20;99.90;;;;;;5092830;28;20061;-62
2022/04/26 11:00:09;;;;;;;5.15;2.72;;;12.20;99.90;;;;;;5092425;28;20048;-62
2022/04/26 11:02:40;;;;;;;6.55;2.92;;;11.90;99.90;;;;;;5090599;28;20489;-62
2022/04/26 11:05:11;;;;;;;6.60;3.25;;;12.40;99.90;;;;;;5091305;28;20127;-61
2022/04/26 11:07:38;;;;;;;5.85;2.50;;;13.00;99.90;;;;;;5071891;28;20040;-61
2022/04/26 11:10:05;;;;;;;5.55;2.78;;;12.50;99.90;;;;;;5079694;28;20419;-62
2022/04/26 11:12:33;;;;;;;9.82;3.15;;;12.50;99.90;;;;;;5091865;28;20048;-62
2022/04/26 11:15:19;;;;;;;6.60;3.15;;;12.50;99.90;;;;;;5092115;28;20046;-62
2022/04/26 11:17:45;;;;;;;7.55;2.33;;;14.50;99.90;;;;;;5092165;28;20503;-62
2022/04/26 11:20:14;;;;;;;7.40;2.60;;;12.90;99.90;;;;;;5092318;28;20497;-63
2022/04/26 11:22:52;;;;;;;6.13;2.40;;;12.80;99.90;;;;;;5091750;28;20046;-62
2022/04/26 11:28:11;;;;;;;6.55;2.47;;;12.90;99.90;;;;;;5108875;28;20488;-60
2022/04/26 11:30:54;;;;;;;6.47;3.20;;;12.90;99.90;;;;;;5091514;28;20312;-60
2022/04/26 11:33:22;;;;;;;6.18;2.55;;;12.90;99.90;;;;;;5091806;28;20094;-61
2022/04/26 11:35:52;;;;;;;9.07;2.92;;;13.10;99.90;;;;;;5093286;28;20043;-61
2022/04/26 11:38:18;;;;;;;7.80;2.95;;;13.00;99.90;;;;;;5057111;28;20441;-61
2022/04/26 11:40:56;;;;;;;8.27;2.90;;;13.10;99.90;;;;;;5091465;28;20091;-61
2022/04/26 11:43:24;;;;;;;5.63;2.80;;;13.10;99.90;;;;;;5092828;28;20403;-61
2022/04/26 11:45:55;;;;;;;6.43;2.70;;;12.90;99.90;;;;;;5090506;28;20123;-61
2022/04/26 11:48:25;;;;;;;5.40;2.20;;;13.10;99.90;;;;;;5091214;28;20043;-61
2022/04/26 11:50:55;;;;;;;5.63;2.83;;;13.20;99.90;;;;;;5091014;28;20075;-60
2022/04/26 11:53:27;;;;;;;11.63;3.97;;;13.30;99.90;;;;;;5091722;28;20040;-61
2022/04/26 11:55:53;;;;;;;6.28;3.05;;;13.30;99.90;;;;;;5092574;28;20051;-61
2022/04/26 11:58:41;;;;;;;8.57;2.85;;;13.20;99.10;;;;;;5090612;28;20119;-61
2022/04/26 12:01:11;;;;;;;6.28;2.75;;;12.90;99.90;;;;;;5091716;28;20438;-61
2022/04/26 12:03:55;;;;;;;8.00;3.05;;;12.90;99.90;;;;;;5091182;28;20036;-60
2022/04/26 12:06:28;;;;;;;6.68;3.30;;;13.10;99.90;;;;;;5091654;28;20400;-62
2022/04/26 12:08:55;;;;;;;5.60;2.55;;;13.00;99.90;;;;;;5092281;28;20036;-62
2022/04/26 12:11:24;;;;;;;5.15;2.60;;;13.00;99.90;;;;;;5090232;28;20047;-61
2022/04/26 12:14:11;;;;;;;7.68;3.05;;;13.20;99.90;;;;;;5089367;28;20423;-62
2022/04/26 12:16:46;;;;;;;5.20;2.55;;;13.00;99.90;;;;;;5090537;28;20075;-62
2022/04/26 12:19:12;;;;;;;7.03;3.15;;;13.30;99.90;;;;;;5092410;28;20040;-62
2022/04/26 12:21:52;;;;;;;7.10;3.30;;;12.80;99.90;;;;;;5090907;28;20062;-62
2022/04/26 12:24:21;;;;;;;11.13;3.13;;;12.80;99.90;;;;;;5090865;28;20044;-61
2022/04/26 12:26:52;;;;;;;6.38;2.78;;;12.40;99.60;;;;;;5089797;28;20032;-60
2022/04/26 12:29:18;;;;;;;6.32;2.92;;;12.00;99.90;;;;;;5091197;28;20392;-60
2022/04/26 12:31:47;;;;;;;6.50;2.30;;;12.70;99.90;;;;;;5090940;28;20055;-60
2022/04/26 12:34:21;;;;;;;8.40;3.33;;;12.50;99.90;;;;;;5089357;28;20066;-60
2022/04/26 12:36:59;;;;;;;5.43;2.73;;;12.40;99.90;;;;;;5090533;28;20051;-61
2022/04/26 12:39:28;;;;;;;8.02;3.30;;;12.10;99.90;;;;;;5089527;28;20044;-60
2022/04/26 12:41:56;;;;;;;6.72;2.65;;;11.80;99.90;;;;;;5090254;28;20100;-61
2022/04/26 12:44:23;;;;;;;6.65;2.50;;;12.30;99.90;;;;;;5090687;28;20078;-60
2022/04/26 12:52:45;;;;;;;;;;;;;;;;;;5090305;28;20044;-63
2022/04/26 12:55:10;;;;;;;7.53;2.60;;;11.70;99.90;;;;;;5090271;28;19916;-64
2022/04/26 12:57:50;;;;;;;8.25;2.42;;;11.80;99.90;;;;;;5089847;28;20050;-61
2022/04/26 13:00:17;;;;;;;7.70;3.20;;;11.70;99.90;;;;;;5089432;28;20040;-62
2022/04/26 13:02:42;;;;;;;6.93;2.55;;;12.50;99.90;;;;;;5088918;28;20040;-63
2022/04/26 13:05:08;;;;;;;6.80;3.05;;;12.10;99.90;;;;;;5087843;28;20381;-63
2022/04/26 13:07:34;;;;;;;5.47;2.95;;;12.40;99.90;;;;;;5088884;28;20404;-62
2022/04/26 13:09:59;;;;;;;8.05;2.95;;;12.10;99.90;;;;;;5091106;28;20040;-63
2022/04/26 13:12:25;;;;;;;6.30;2.53;;;12.20;99.90;;;;;;5091653;28;20393;-65
2022/04/26 13:14:50;;;;;;;5.30;2.30;;;11.90;99.90;;;;;;5083108;28;20087;-65
2022/04/26 13:17:20;;;;;;;5.68;2.78;;;12.40;99.90;;;;;;5089055;28;20035;-64
2022/04/26 13:19:46;;;;;;;4.93;2.42;;;11.90;99.90;;;;;;5089674;28;20117;-65
2022/04/26 13:22:13;;;;;;;8.45;2.72;;;12.30;99.50;;;;;;5091384;28;20449;-63
2022/04/26 13:24:39;;;;;;;7.53;3.25;;;;;;;;;;5090563;28;20120;-63
2022/04/26 13:27:06;;;;;;;7.70;3.00;;;;;;;;;;5083741;28;20127;-63
2022/04/26 13:29:32;;;;;;;5.20;2.50;;;12.30;99.90;;;;;;5085233;28;20044;-63
2022/04/26 13:31:58;;;;;;;7.15;2.75;;;12.10;99.90;;;;;;5090139;28;20119;-63
2022/04/26 13:34:24;;;;;;;6.65;2.88;;;12.00;99.90;;;;;;5092766;28;20085;-63
2022/04/26 13:36:51;;;;;;;8.23;3.97;;;12.00;99.90;;;;;;5090746;28;20055;-63
2022/04/26 13:39:16;;;;;;;6.25;2.75;;;11.90;99.90;;;;;;5089701;28;20116;-63
2022/04/26 13:41:42;;;;;;;7.50;2.72;;;11.80;99.90;;;;;;5091149;28;20123;-63
2022/04/26 13:44:08;;;;;;;5.90;3.42;;;11.70;99.90;;;;;;5089951;28;20118;-63
2022/04/26 13:46:33;;;;;;;5.07;2.65;;;11.90;99.90;;;;;;5089325;28;20495;-63
2022/04/26 13:48:59;;;;;;;10.77;3.05;;;12.00;99.90;;;;;;5091630;28;20062;-63
2022/04/26 13:51:29;;;;;;;6.88;2.38;;;12.10;99.90;;;;;;5072995;28;20055;-63
2022/04/26 13:53:54;;;;;;;6.82;2.88;;;12.10;99.90;;;;;;5087425;28;20097;-63
2022/04/26 13:56:20;;;;;;;6.88;2.53;;;12.20;99.90;;;;;;5089422;28;20074;-63
2022/04/26 13:58:46;;;;;;;6.18;3.25;;;12.30;99.90;;;;;;5088483;28;20127;-63
2022/04/26 14:01:11;;;;;;;6.38;2.42;;;12.20;99.90;;;;;;5089655;28;20047;-63
2022/04/26 14:03:37;;;;;;;6.32;2.75;;;11.80;99.90;;;;;;5090915;28;20629;-63
2022/04/26 14:06:02;;;;;;;7.00;2.92;;;12.10;99.90;;;;;;5089941;28;20032;-64
2022/04/26 14:08:30;;;;;;;7.05;2.80;;;12.10;99.90;;;;;;5073162;28;20130;-63
2022/04/26 14:10:57;;;;;;;6.93;2.60;;;12.60;99.90;;;;;;5089985;28;20044;-63
2022/04/26 14:13:22;;;;;;;5.88;2.90;;;12.50;99.90;;;;;;5089422;28;20072;-63
2022/04/26 14:24:04;;;;;;;7.65;3.00;;;;;;;;;;5091128;28;20135;-63
2022/04/26 14:26:30;;;;;;;8.73;3.00;;;;;;;;;;5075752;28;20492;-64
2022/04/26 14:28:56;;;;;;;5.32;2.97;;;;;;;;;;5072220;28;20036;-63
2022/04/26 14:31:22;;;;;;;5.38;2.60;;;;;;;;;;5089668;28;20064;-64
2022/04/26 14:33:48;;;;;;;7.18;3.25;;;;;;;;;;5090388;28;20479;-64
2022/04/26 14:36:14;;;;;;;4.35;2.20;;;;;;;;;;5091408;28;20040;-65
2022/04/26 14:38:40;;;;;;;5.93;2.95;;;13.20;99.90;;;;;;5090543;28;20048;-66
2022/04/26 14:41:05;;;;;;;7.10;2.80;;;12.90;97.30;;;;;;5090400;28;20044;-65
2022/04/26 14:43:31;;;;;;;6.57;3.03;;;12.80;99.90;;;;;;5089496;28;20073;-63
2022/04/26 14:45:57;;;;;;;6.43;2.67;;;;;;;;;;5089686;28;20476;-63
2022/04/26 14:48:23;;;;;;;7.75;3.35;;;12.50;97.30;;;;;;5088579;28;20044;-63
2022/04/26 14:50:49;;;;;;;6.32;2.83;;;12.50;97.20;;;;;;5090481;28;20377;-63
2022/04/26 14:53:15;;;;;;;6.28;2.50;;;12.20;99.90;;;;;;5091155;28;20491;-62
2022/04/26 14:55:42;;;;;;;6.93;3.25;;;;;;;;;;5087264;28;20082;-62
2022/04/26 14:58:10;;;;;;;5.70;2.78;;;;;;;;;;5089655;28;20091;-63
2022/04/26 15:00:36;;;;;;;5.25;2.60;;;13.10;99.90;;;;;;5089801;28;20101;-62
2022/04/26 15:03:03;;;;;;;5.80;2.78;;;13.40;99.90;;;;;;5105110;28;20426;-63
2022/04/26 15:05:29;;;;;;;6.97;3.05;;;;;;;;;;5091153;28;20070;-62
2022/04/26 15:10:40;;;;;;;9.13;2.60;;;;;;;;;;5089857;28;20744;-63
2022/04/26 15:18:35;;;;;;;8.40;3.25;;;13.30;99.90;;;;;;5090004;28;20040;-62
2022/04/26 15:21:02;;;;;;;5.90;2.60;;;12.80;99.90;;;;;;5089129;28;20119;-63
2022/04/26 15:23:29;;;;;;;5.82;2.33;;;12.90;93.10;;;;;;5087708;28;20425;-63
2022/04/26 15:25:55;;;;;;;5.75;2.40;;;;;;;;;;5089924;28;20032;-63
2022/04/26 15:28:22;;;;;;;8.27;3.20;;;12.70;94.10;;;;;;5088242;28;20050;-63
2022/04/26 15:30:49;;;;;;;6.28;2.42;;;12.40;99.90;;;;;;5070087;28;20036;-63
2022/04/26 15:33:16;;;;;;;8.57;2.65;;;12.60;99.90;;;;;;5089224;28;20399;-62
2022/04/26 15:35:42;;;;;;;6.38;2.40;;;12.50;99.90;;;;;;5089542;28;20085;-63
2022/04/26 15:38:10;;;;;;;7.85;2.75;;;12.70;99.90;;;;;;5088992;28;20048;-63
2022/04/26 15:40:37;;;;;;;7.18;2.70;;;12.30;99.90;;;;;;5087463;28;20461;-63
2022/04/26 15:43:05;;;;;;;6.93;2.80;;;12.60;95.90;;;;;;5087646;28;20032;-63
2022/04/26 15:45:31;;;;;;;7.30;3.08;;;;;;;;;;5087317;28;20050;-63
2022/04/26 15:47:58;;;;;;;7.20;3.13;;;;;;;;;;5086739;28;20032;-63
2022/04/26 15:50:24;;;;;;;5.63;2.78;;;;;;;;;;5087707;28;20155;-63
2022/04/26 15:52:50;;;;;;;5.50;2.50;;;12.70;99.90;;;;;;5087196;28;20053;-63
2022/04/26 15:55:17;;;;;;;6.60;2.60;;;12.80;99.30;;;;;;5086647;28;20044;-63
2022/04/26 15:57:44;;;;;;;5.57;2.15;;;13.20;99.90;;;;;;5087454;28;20136;-63
2022/04/26 16:00:11;;;;;;;5.05;2.45;;;13.00;99.90;;;;;;5088847;28;20043;-63
2022/04/26 16:02:39;;;;;;;6.25;2.60;;;12.30;99.90;;;;;;5087510;28;20052;-63
2022/04/26 16:05:05;;;;;;;4.57;2.30;;;12.70;99.90;;;;;;5087220;28;20054;-63
2022/04/26 16:07:31;;;;;;;8.40;2.92;;;;;;;;;;5103664;28;20052;-63
2022/04/26 16:20:55;;;;;;;4.68;2.20;;;13.00;99.90;;;;;;5073670;28;20516;-63
2022/04/26 16:23:20;;;;;;;6.18;2.50;;;12.70;99.90;;;;;;5088090;28;20149;-63
2022/04/26 16:25:46;;;;;;;5.75;2.55;;;12.60;99.90;;;;;;5087608;28;20408;-63
2022/04/26 16:28:12;;;;;;;7.22;2.88;;;13.00;99.90;;;;;;5070324;28;20126;-63
2022/04/26 16:30:40;;;;;;;5.07;2.53;;;12.50;99.90;;;;;;5087690;28;20052;-63
2022/04/26 16:33:06;;;;;;;7.05;3.15;;;12.30;99.90;;;;;;5087441;28;20128;-63
2022/04/26 16:35:32;;;;;;;7.47;2.20;;;12.70;99.90;;;;;;5086922;28;20047;-63
2022/04/26 16:37:58;;;;;;;7.82;2.38;;;14.00;99.90;;;;;;5087326;28;20059;-63
2022/04/26 16:40:24;;;;;;;5.97;3.08;;;12.70;99.90;;;;;;5086191;28;20050;-63
2022/04/26 16:42:50;;;;;;;8.63;2.53;;;14.20;99.90;;;;;;5088965;28;20039;-63
2022/04/26 16:45:16;;;;;;;6.88;2.50;;;12.80;99.90;;;;;;5077400;28;20194;-63
2022/04/26 16:47:42;;;;;;;8.05;2.70;;;14.00;99.90;;;;;;5074376;28;20085;-62
2022/04/26 16:50:08;;;;;;;6.80;2.55;;;12.80;99.90;;;;;;5086976;28;20525;-63
2022/04/26 16:52:37;;;;;;;7.47;2.47;;;12.50;94.80;;;;;;5087168;28;20083;-63
2022/04/26 16:55:03;;;;;;;6.43;2.38;;;;;;;;;;5101807;28;20051;-63
2022/04/26 16:57:31;;;;;;;6.00;2.22;;;;;;;;;;5087223;28;20044;-63
2022/04/26 16:59:57;;;;;;;18.25;3.33;;;;;;;;;;5088658;28;20048;-63
2022/04/26 17:02:26;;;;;;;7.93;2.70;;;12.80;99.90;;;;;;5086723;28;20490;-63
2022/04/26 17:04:52;;;;;;;7.05;2.88;;;12.40;97.40;;;;;;5088988;28;20052;-63
2022/04/26 17:07:19;;;;;;;7.93;2.90;;;;;;;;;;5087063;28;20508;-63
2022/04/26 17:09:45;;;;;;;6.55;2.25;;;;;;;;;;5086221;28;20040;-62
2022/04/26 17:12:12;;;;;;;6.15;2.17;;;;;;;;;;5090824;28;20040;-63
2022/04/26 17:14:39;;;;;;;6.75;2.17;;;;;;;;;;5092623;28;20106;-63
2022/04/26 17:17:05;;;;;;;6.57;3.10;;;;;;;;;;5091063;28;20036;-63
2022/04/26 17:19:31;;;;;;;6.50;2.67;;;11.40;99.90;;;;;;5091265;28;20123;-63
2022/04/26 17:21:59;;;;;;;8.65;3.10;;;10.70;99.90;;;;;;5091915;28;20055;-63
2022/04/26 17:27:11;;;;;;;8.32;3.17;;;10.90;99.90;;;;;;5091168;28;20144;-62
2022/04/26 17:29:38;;;;;;;5.90;2.97;;;;;;;;;;5090988;28;20067;-62
2022/04/26 17:35:38;;;;;;;10.48;2.97;;;10.60;99.90;;;;;;5108323;28;20046;-63
2022/04/26 17:38:05;;;;;;;9.23;2.55;;;;;;;;;;5090439;28;20051;-63
2022/04/26 17:40:31;;;;;;;6.38;2.40;;;11.20;99.90;;;;;;5092301;28;20055;-62
2022/04/26 17:42:57;;;;;;;6.65;2.70;;;10.80;99.90;;;;;;5092498;28;20035;-62
2022/04/26 17:45:22;;;;;;;8.63;2.85;;;11.20;99.90;;;;;;5089932;28;20384;-62
2022/04/26 17:47:48;;;;;;;5.78;2.35;;;10.90;99.90;;;;;;5092458;28;20047;-62
2022/04/26 17:50:14;;;;;;;5.72;2.45;;;11.00;99.90;;;;;;5092194;28;20051;-62
2022/04/26 17:58:09;;;;;;;6.15;2.72;;;11.10;99.90;;;;;;5091080;28;20067;-62
2022/04/26 18:00:35;;;;;;;5.45;2.90;;;10.50;99.90;;;;;;5091107;28;20047;-62
2022/04/26 18:03:00;;;;;;;5.70;2.53;;;10.80;99.90;;;;;;5089414;28;20379;-62
2022/04/26 18:05:28;;;;;;;5.90;2.33;;;10.60;99.90;;;;;;5090271;28;20048;-62
2022/04/26 18:07:54;;;;;;;7.97;2.85;;;;;;;;;;5088914;28;20135;-63
2022/04/26 18:10:20;;;;;;;6.43;2.78;;;;;;;;;;5091027;28;20032;-63
2022/04/26 18:12:46;;;;;;;5.95;2.38;;;11.00;99.90;;;;;;5088950;28;20058;-62
2022/04/26 18:15:12;;;;;;;7.65;2.95;;;;;;;;;;5092214;28;20043;-62
2022/04/26 18:17:38;;;;;;;8.43;3.63;;;;;;;;;;5086203;28;20037;-62